sensor_id;sensor_type;location;lat;lon;timestamp;temperature;humidity
63960;DHT22;50136;51.374;0.096;2023-02-28T00:07:53;4.10;99.90
63960;DHT22;50136;51.374;0.096;2023-02-28T00:17:55;4.00;99.90
63960;DHT22;50136;51.374;0.096;2023-02-28T00:27:58;3.90;99.90
63960;DHT22;50136;51.374;0.096;2023-02-28T00:38:00;3.80;99.90
63960;DHT22;50136;51.374;0.096;2023-02-28T00:48:05;3.60;99.90
63960;DHT22;50136;51.374;0.096;2023-02-28T00:58:07;3.40;99.90
63960;DHT22;50136;51.374;0.096;2023-02-28T01:08:10;3.10;99.90
63960;DHT22;50136;51.374;0.096;2023-02-28T01:18:12;2.90;99.90
63960;DHT22;50136;51.374;0.096;2023-02-28T01:28:18;2.80;99.90
63960;DHT22;50136;51.374;0.096;2023-02-28T01:38:20;2.70;99.90
63960;DHT22;50136;51.374;0.096;2023-02-28T01:48:28;2.80;99.90
63960;DHT22;50136;51.374;0.096;2023-02-28T01:58:32;2.90;99.90
63960;DHT22;50136;51.374;0.096;2023-02-28T02:08:36;2.90;99.90
63960;DHT22;50136;51.374;0.096;2023-02-28T02:18:42;2.70;99.90
63960;DHT22;50136;51.374;0.096;2023-02-28T02:29:10;2.60;99.90
63960;DHT22;50136;51.374;0.096;2023-02-28T02:39:24;2.70;99.90
63960;DHT22;50136;51.374;0.096;2023-02-28T02:49:32;2.50;99.90
63960;DHT22;50136;51.374;0.096;2023-02-28T02:59:38;2.40;99.90
63960;DHT22;50136;51.374;0.096;2023-02-28T03:09:49;2.10;99.90
63960;DHT22;50136;51.374;0.096;2023-02-28T03:20:00;2.00;99.90
63960;DHT22;50136;51.374;0.096;2023-02-28T03:30:06;1.60;99.90
63960;DHT22;50136;51.374;0.096;2023-02-28T03:40:15;1.50;99.90
63960;DHT22;50136;51.374;0.096;2023-02-28T03:50:20;1.40;99.90
63960;DHT22;50136;51.374;0.096;2023-02-28T04:00:28;1.30;99.90
63960;DHT22;50136;51.374;0.096;2023-02-28T04:10:32;1.20;99.90
63960;DHT22;50136;51.374;0.096;2023-02-28T04:20:35;1.10;99.90
63960;DHT22;50136;51.374;0.096;2023-02-28T04:30:38;1.00;99.90
63960;DHT22;50136;51.374;0.096;2023-02-28T04:40:41;0.90;99.90
63960;DHT22;50136;51.374;0.096;2023-02-28T04:50:43;0.90;99.90
63960;DHT22;50136;51.374;0.096;2023-02-28T05:00:46;0.80;99.90
63960;DHT22;50136;51.374;0.096;2023-02-28T05:10:48;0.70;99.90
63960;DHT22;50136;51.374;0.096;2023-02-28T05:20:51;0.60;99.90
63960;DHT22;50136;51.374;0.096;2023-02-28T05:30:54;0.50;99.90
63960;DHT22;50136;51.374;0.096;2023-02-28T05:40:57;0.50;99.90
63960;DHT22;50136;51.374;0.096;2023-02-28T05:50:59;0.60;99.90
63960;DHT22;50136;51.374;0.096;2023-02-28T06:01:20;0.80;99.90
63960;DHT22;50136;51.374;0.096;2023-02-28T06:11:23;0.90;99.90
63960;DHT22;50136;51.374;0.096;2023-02-28T06:21:29;1.00;99.90
63960;DHT22;50136;51.374;0.096;2023-02-28T06:31:32;1.20;99.90
63960;DHT22;50136;51.374;0.096;2023-02-28T06:41:36;1.50;99.90
63960;DHT22;50136;51.374;0.096;2023-02-28T06:51:55;1.90;99.90
63960;DHT22;50136;51.374;0.096;2023-02-28T07:01:58;2.00;99.90
63960;DHT22;50136;51.374;0.096;2023-02-28T07:12:00;2.10;99.90
63960;DHT22;50136;51.374;0.096;2023-02-28T07:22:04;2.30;99.90
63960;DHT22;50136;51.374;0.096;2023-02-28T07:32:06;2.70;99.90
63960;DHT22;50136;51.374;0.096;2023-02-28T07:42:10;3.00;99.90
63960;DHT22;50136;51.374;0.096;2023-02-28T07:52:13;3.30;99.90
63960;DHT22;50136;51.374;0.096;2023-02-28T08:02:18;3.40;99.90
63960;DHT22;50136;51.374;0.096;2023-02-28T08:12:21;3.70;99.90
63960;DHT22;50136;51.374;0.096;2023-02-28T08:22:24;4.00;99.90
63960;DHT22;50136;51.374;0.096;2023-02-28T08:32:26;4.40;99.90
63960;DHT22;50136;51.374;0.096;2023-02-28T08:42:33;4.60;99.90
63960;DHT22;50136;51.374;0.096;2023-02-28T08:52:35;5.00;99.90
63960;DHT22;50136;51.374;0.096;2023-02-28T09:02:39;5.10;99.90
63960;DHT22;50136;51.374;0.096;2023-02-28T09:12:41;5.60;99.90
63960;DHT22;50136;51.374;0.096;2023-02-28T09:22:44;5.80;99.90
63960;DHT22;50136;51.374;0.096;2023-02-28T09:32:46;5.80;99.90
63960;DHT22;50136;51.374;0.096;2023-02-28T09:42:55;6.50;99.90
63960;DHT22;50136;51.374;0.096;2023-02-28T09:53:02;6.60;99.90
63960;DHT22;50136;51.374;0.096;2023-02-28T10:03:32;6.70;99.90
63960;DHT22;50136;51.374;0.096;2023-02-28T10:13:42;6.30;99.90
63960;DHT22;50136;51.374;0.096;2023-02-28T10:23:49;6.20;99.90
63960;DHT22;50136;51.374;0.096;2023-02-28T10:33:55;6.40;99.90
63960;DHT22;50136;51.374;0.096;2023-02-28T10:44:21;6.30;99.90
63960;DHT22;50136;51.374;0.096;2023-02-28T10:54:26;6.80;99.90
63960;DHT22;50136;51.374;0.096;2023-02-28T11:04:36;6.80;99.90
63960;DHT22;50136;51.374;0.096;2023-02-28T11:14:47;6.90;99.90
63960;DHT22;50136;51.374;0.096;2023-02-28T11:24:54;6.80;99.90
63960;DHT22;50136;51.374;0.096;2023-02-28T11:35:02;6.70;99.90
63960;DHT22;50136;51.374;0.096;2023-02-28T11:45:27;6.70;99.90
63960;DHT22;50136;51.374;0.096;2023-02-28T11:55:36;6.50;99.90
63960;DHT22;50136;51.374;0.096;2023-02-28T12:05:44;6.60;99.90
63960;DHT22;50136;51.374;0.096;2023-02-28T12:16:14;6.50;99.90
63960;DHT22;50136;51.374;0.096;2023-02-28T12:26:20;6.80;99.90
63960;DHT22;50136;51.374;0.096;2023-02-28T12:36:25;6.80;99.90
63960;DHT22;50136;51.374;0.096;2023-02-28T12:46:33;6.90;99.90
63960;DHT22;50136;51.374;0.096;2023-02-28T12:56:43;6.90;99.90
63960;DHT22;50136;51.374;0.096;2023-02-28T13:07:02;7.00;99.90
63960;DHT22;50136;51.374;0.096;2023-02-28T13:17:11;7.10;99.90
63960;DHT22;50136;51.374;0.096;2023-02-28T13:27:37;7.10;99.90
63960;DHT22;50136;51.374;0.096;2023-02-28T13:37:43;7.20;99.90
63960;DHT22;50136;51.374;0.096;2023-02-28T13:47:52;7.30;99.90
63960;DHT22;50136;51.374;0.096;2023-02-28T13:58:08;7.20;99.90
63960;DHT22;50136;51.374;0.096;2023-02-28T14:08:16;7.30;99.90
63960;DHT22;50136;51.374;0.096;2023-02-28T14:18:28;7.30;99.90
63960;DHT22;50136;51.374;0.096;2023-02-28T14:28:45;7.20;99.90
63960;DHT22;50136;51.374;0.096;2023-02-28T14:38:51;7.20;99.90
63960;DHT22;50136;51.374;0.096;2023-02-28T14:48:55;7.30;99.90
63960;DHT22;50136;51.374;0.096;2023-02-28T14:58:58;7.20;99.90
63960;DHT22;50136;51.374;0.096;2023-02-28T15:09:09;7.30;99.90
63960;DHT22;50136;51.374;0.096;2023-02-28T15:19:14;7.50;99.90
63960;DHT22;50136;51.374;0.096;2023-02-28T15:29:22;7.70;99.90
63960;DHT22;50136;51.374;0.096;2023-02-28T15:39:27;7.70;99.90
63960;DHT22;50136;51.374;0.096;2023-02-28T15:49:37;7.60;99.90
63960;DHT22;50136;51.374;0.096;2023-02-28T15:59:51;7.70;99.90
63960;DHT22;50136;51.374;0.096;2023-02-28T16:09:55;7.60;99.90
63960;DHT22;50136;51.374;0.096;2023-02-28T16:19:57;7.60;99.90
63960;DHT22;50136;51.374;0.096;2023-02-28T16:30:02;7.50;99.90
63960;DHT22;50136;51.374;0.096;2023-02-28T16:40:14;7.50;99.90
63960;DHT22;50136;51.374;0.096;2023-02-28T16:50:22;7.50;99.90
63960;DHT22;50136;51.374;0.096;2023-02-28T17:00:29;7.50;99.90
63960;DHT22;50136;51.374;0.096;2023-02-28T17:10:36;7.40;99.90
63960;DHT22;50136;51.374;0.096;2023-02-28T17:20:38;7.40;99.90
63960;DHT22;50136;51.374;0.096;2023-02-28T17:30:42;7.30;99.90
63960;DHT22;50136;51.374;0.096;2023-02-28T17:40:48;7.30;99.90
63960;DHT22;50136;51.374;0.096;2023-02-28T17:50:52;7.20;99.90
63960;DHT22;50136;51.374;0.096;2023-02-28T18:00:54;7.20;99.90
63960;DHT22;50136;51.374;0.096;2023-02-28T18:11:08;7.20;99.90
63960;DHT22;50136;51.374;0.096;2023-02-28T18:21:15;7.20;99.90
63960;DHT22;50136;51.374;0.096;2023-02-28T18:31:23;7.20;99.90
63960;DHT22;50136;51.374;0.096;2023-02-28T19:02:00;7.00;99.90
63960;DHT22;50136;51.374;0.096;2023-02-28T19:34:19;6.80;99.90
63960;DHT22;50136;51.374;0.096;2023-02-28T19:44:21;6.80;99.90
63960;DHT22;50136;51.374;0.096;2023-02-28T19:54:25;6.70;99.90
63960;DHT22;50136;51.374;0.096;2023-02-28T20:04:27;6.70;99.90
63960;DHT22;50136;51.374;0.096;2023-02-28T20:24:50;6.10;99.90
63960;DHT22;50136;51.374;0.096;2023-02-28T20:34:52;5.90;99.90
63960;DHT22;50136;51.374;0.096;2023-02-28T20:55:13;5.90;99.90
63960;DHT22;50136;51.374;0.096;2023-02-28T21:16:23;5.90;99.90
63960;DHT22;50136;51.374;0.096;2023-02-28T21:26:30;5.90;99.90
63960;DHT22;50136;51.374;0.096;2023-02-28T21:36:40;6.00;99.90
63960;DHT22;50136;51.374;0.096;2023-02-28T21:46:43;5.90;99.90
63960;DHT22;50136;51.374;0.096;2023-02-28T21:56:46;5.60;99.90
63960;DHT22;50136;51.374;0.096;2023-02-28T22:06:53;5.70;99.90
63960;DHT22;50136;51.374;0.096;2023-02-28T22:16:57;5.40;99.90
63960;DHT22;50136;51.374;0.096;2023-02-28T22:26:59;5.20;99.90
63960;DHT22;50136;51.374;0.096;2023-02-28T22:37:03;5.10;99.90
63960;DHT22;50136;51.374;0.096;2023-02-28T22:47:10;5.00;99.90
63960;DHT22;50136;51.374;0.096;2023-02-28T22:57:13;5.00;99.90
63960;DHT22;50136;51.374;0.096;2023-02-28T23:07:15;4.90;99.90
63960;DHT22;50136;51.374;0.096;2023-02-28T23:17:18;4.60;99.90
63960;DHT22;50136;51.374;0.096;2023-02-28T23:27:20;4.50;99.90
63960;DHT22;50136;51.374;0.096;2023-02-28T23:37:24;4.30;99.90
63960;DHT22;50136;51.374;0.096;2023-02-28T23:47:26;4.20;99.90
63960;DHT22;50136;51.374;0.096;2023-02-28T23:57:30;4.10;99.90
